sensor_id;sensor_type;location;lat;lon;timestamp;temperature;humidity
10419;DHT22;5256;48.728;9.140;2023-05-24T00:01:42;11.60;99.90
10419;DHT22;5256;48.728;9.140;2023-05-24T00:04:08;11.60;99.90
10419;DHT22;5256;48.728;9.140;2023-05-24T00:06:35;11.60;99.90
10419;DHT22;5256;48.728;9.140;2023-05-24T00:09:02;11.70;99.90
10419;DHT22;5256;48.728;9.140;2023-05-24T00:11:28;11.70;99.90
10419;DHT22;5256;48.728;9.140;2023-05-24T00:13:53;11.60;99.90
10419;DHT22;5256;48.728;9.140;2023-05-24T00:16:19;11.60;99.90
10419;DHT22;5256;48.728;9.140;2023-05-24T00:18:45;11.60;99.90
10419;DHT22;5256;48.728;9.140;2023-05-24T00:21:13;11.60;99.90
10419;DHT22;5256;48.728;9.140;2023-05-24T00:23:39;11.60;99.90
10419;DHT22;5256;48.728;9.140;2023-05-24T00:26:06;11.50;99.90
10419;DHT22;5256;48.728;9.140;2023-05-24T00:28:32;11.50;99.90
10419;DHT22;5256;48.728;9.140;2023-05-24T00:30:58;11.40;99.90
10419;DHT22;5256;48.728;9.140;2023-05-24T00:33:24;11.40;99.90
10419;DHT22;5256;48.728;9.140;2023-05-24T00:35:50;11.40;99.90
10419;DHT22;5256;48.728;9.140;2023-05-24T00:38:29;11.40;99.90
10419;DHT22;5256;48.728;9.140;2023-05-24T00:40:55;11.40;99.90
10419;DHT22;5256;48.728;9.140;2023-05-24T00:43:21;11.30;99.90
10419;DHT22;5256;48.728;9.140;2023-05-24T00:45:46;11.30;99.90
10419;DHT22;5256;48.728;9.140;2023-05-24T00:48:12;11.30;99.90
10419;DHT22;5256;48.728;9.140;2023-05-24T00:50:38;11.20;99.90
10419;DHT22;5256;48.728;9.140;2023-05-24T00:53:05;11.20;99.90
10419;DHT22;5256;48.728;9.140;2023-05-24T00:55:33;11.20;99.90
10419;DHT22;5256;48.728;9.140;2023-05-24T00:57:59;11.20;99.90
10419;DHT22;5256;48.728;9.140;2023-05-24T01:00:26;11.30;99.90
10419;DHT22;5256;48.728;9.140;2023-05-24T01:02:52;11.30;99.90
10419;DHT22;5256;48.728;9.140;2023-05-24T01:05:19;11.30;99.90
10419;DHT22;5256;48.728;9.140;2023-05-24T01:16:23;11.50;99.90
10419;DHT22;5256;48.728;9.140;2023-05-24T01:18:53;11.50;99.90
10419;DHT22;5256;48.728;9.140;2023-05-24T01:22:23;11.40;99.90
10419;DHT22;5256;48.728;9.140;2023-05-24T01:24:36;11.40;99.90
10419;DHT22;5256;48.728;9.140;2023-05-24T01:27:07;11.30;99.90
10419;DHT22;5256;48.728;9.140;2023-05-24T01:29:34;11.30;99.90
10419;DHT22;5256;48.728;9.140;2023-05-24T01:32:01;11.30;99.90
10419;DHT22;5256;48.728;9.140;2023-05-24T01:34:27;11.20;99.90
10419;DHT22;5256;48.728;9.140;2023-05-24T01:36:52;11.30;99.90
10419;DHT22;5256;48.728;9.140;2023-05-24T01:39:19;11.20;99.90
10419;DHT22;5256;48.728;9.140;2023-05-24T01:42:12;11.20;99.90
10419;DHT22;5256;48.728;9.140;2023-05-24T01:50:02;11.10;99.90
10419;DHT22;5256;48.728;9.140;2023-05-24T01:52:32;11.10;99.90
10419;DHT22;5256;48.728;9.140;2023-05-24T01:55:00;11.00;99.90
10419;DHT22;5256;48.728;9.140;2023-05-24T01:57:27;11.10;99.90
10419;DHT22;5256;48.728;9.140;2023-05-24T01:59:54;11.00;99.90
10419;DHT22;5256;48.728;9.140;2023-05-24T02:02:20;11.00;99.90
10419;DHT22;5256;48.728;9.140;2023-05-24T02:04:46;11.00;99.90
10419;DHT22;5256;48.728;9.140;2023-05-24T02:07:11;11.00;99.90
10419;DHT22;5256;48.728;9.140;2023-05-24T02:09:37;11.00;99.90
10419;DHT22;5256;48.728;9.140;2023-05-24T02:12:03;11.00;99.90
10419;DHT22;5256;48.728;9.140;2023-05-24T02:14:29;11.00;99.90
10419;DHT22;5256;48.728;9.140;2023-05-24T02:16:55;11.10;99.90
10419;DHT22;5256;48.728;9.140;2023-05-24T02:19:23;11.10;99.90
10419;DHT22;5256;48.728;9.140;2023-05-24T02:21:49;11.10;99.90
10419;DHT22;5256;48.728;9.140;2023-05-24T02:24:15;11.00;99.90
10419;DHT22;5256;48.728;9.140;2023-05-24T02:26:43;11.00;99.90
10419;DHT22;5256;48.728;9.140;2023-05-24T02:29:09;11.00;99.90
10419;DHT22;5256;48.728;9.140;2023-05-24T02:31:35;10.90;99.90
10419;DHT22;5256;48.728;9.140;2023-05-24T02:34:00;10.90;99.90
10419;DHT22;5256;48.728;9.140;2023-05-24T02:36:26;10.90;99.90
10419;DHT22;5256;48.728;9.140;2023-05-24T02:38:52;10.90;99.90
10419;DHT22;5256;48.728;9.140;2023-05-24T02:41:18;10.90;99.90
10419;DHT22;5256;48.728;9.140;2023-05-24T02:43:47;10.90;99.90
10419;DHT22;5256;48.728;9.140;2023-05-24T02:46:13;10.90;99.90
10419;DHT22;5256;48.728;9.140;2023-05-24T02:48:39;10.90;99.90
10419;DHT22;5256;48.728;9.140;2023-05-24T02:51:05;10.90;99.90
10419;DHT22;5256;48.728;9.140;2023-05-24T02:53:31;10.80;99.90
10419;DHT22;5256;48.728;9.140;2023-05-24T02:55:57;10.80;99.90
10419;DHT22;5256;48.728;9.140;2023-05-24T02:58:24;10.80;99.90
10419;DHT22;5256;48.728;9.140;2023-05-24T03:00:49;10.70;99.90
10419;DHT22;5256;48.728;9.140;2023-05-24T03:03:15;10.70;99.90
10419;DHT22;5256;48.728;9.140;2023-05-24T03:05:41;10.60;99.90
10419;DHT22;5256;48.728;9.140;2023-05-24T03:08:06;10.60;99.90
10419;DHT22;5256;48.728;9.140;2023-05-24T03:10:32;10.60;99.90
10419;DHT22;5256;48.728;9.140;2023-05-24T03:12:58;10.50;99.90
10419;DHT22;5256;48.728;9.140;2023-05-24T03:15:23;10.40;99.90
10419;DHT22;5256;48.728;9.140;2023-05-24T03:17:49;10.40;99.90
10419;DHT22;5256;48.728;9.140;2023-05-24T03:20:15;10.40;99.90
10419;DHT22;5256;48.728;9.140;2023-05-24T03:22:42;10.30;99.90
10419;DHT22;5256;48.728;9.140;2023-05-24T03:25:08;10.30;99.90
10419;DHT22;5256;48.728;9.140;2023-05-24T03:27:34;10.30;99.90
10419;DHT22;5256;48.728;9.140;2023-05-24T03:30:00;10.30;99.90
10419;DHT22;5256;48.728;9.140;2023-05-24T03:32:26;10.30;99.90
10419;DHT22;5256;48.728;9.140;2023-05-24T03:34:52;10.20;99.90
10419;DHT22;5256;48.728;9.140;2023-05-24T03:37:19;10.20;99.90
10419;DHT22;5256;48.728;9.140;2023-05-24T03:39:45;10.20;99.90
10419;DHT22;5256;48.728;9.140;2023-05-24T03:42:11;10.20;99.90
10419;DHT22;5256;48.728;9.140;2023-05-24T03:44:37;10.30;99.90
10419;DHT22;5256;48.728;9.140;2023-05-24T03:47:04;10.30;99.90
10419;DHT22;5256;48.728;9.140;2023-05-24T03:49:30;10.30;99.90
10419;DHT22;5256;48.728;9.140;2023-05-24T03:51:56;10.30;99.90
10419;DHT22;5256;48.728;9.140;2023-05-24T03:54:22;10.30;99.90
10419;DHT22;5256;48.728;9.140;2023-05-24T03:56:48;10.30;99.90
10419;DHT22;5256;48.728;9.140;2023-05-24T03:59:14;10.20;99.90
10419;DHT22;5256;48.728;9.140;2023-05-24T04:01:40;10.30;99.90
10419;DHT22;5256;48.728;9.140;2023-05-24T04:04:06;10.20;99.90
10419;DHT22;5256;48.728;9.140;2023-05-24T04:06:31;10.20;99.90
10419;DHT22;5256;48.728;9.140;2023-05-24T04:08:59;10.20;99.90
10419;DHT22;5256;48.728;9.140;2023-05-24T04:11:26;10.20;99.90
10419;DHT22;5256;48.728;9.140;2023-05-24T04:13:56;10.20;99.90
10419;DHT22;5256;48.728;9.140;2023-05-24T04:16:22;10.20;99.90
10419;DHT22;5256;48.728;9.140;2023-05-24T04:18:52;10.20;99.90
10419;DHT22;5256;48.728;9.140;2023-05-24T04:21:18;10.20;99.90
10419;DHT22;5256;48.728;9.140;2023-05-24T04:23:44;10.20;99.90
10419;DHT22;5256;48.728;9.140;2023-05-24T04:26:11;10.10;99.90
10419;DHT22;5256;48.728;9.140;2023-05-24T04:28:36;10.20;99.90
10419;DHT22;5256;48.728;9.140;2023-05-24T04:31:06;10.20;99.90
10419;DHT22;5256;48.728;9.140;2023-05-24T04:33:35;10.20;99.90
10419;DHT22;5256;48.728;9.140;2023-05-24T04:36:01;10.20;99.90
10419;DHT22;5256;48.728;9.140;2023-05-24T04:38:27;10.20;99.90
10419;DHT22;5256;48.728;9.140;2023-05-24T04:40:57;10.30;99.90
10419;DHT22;5256;48.728;9.140;2023-05-24T04:43:23;10.20;99.90
10419;DHT22;5256;48.728;9.140;2023-05-24T04:45:51;10.20;99.90
10419;DHT22;5256;48.728;9.140;2023-05-24T04:48:16;10.30;99.90
10419;DHT22;5256;48.728;9.140;2023-05-24T04:50:43;10.30;99.90
10419;DHT22;5256;48.728;9.140;2023-05-24T04:53:08;10.30;99.90
10419;DHT22;5256;48.728;9.140;2023-05-24T04:55:34;10.30;99.90
10419;DHT22;5256;48.728;9.140;2023-05-24T04:58:00;10.30;99.90
10419;DHT22;5256;48.728;9.140;2023-05-24T05:00:27;10.40;99.90
10419;DHT22;5256;48.728;9.140;2023-05-24T05:02:52;10.40;99.90
10419;DHT22;5256;48.728;9.140;2023-05-24T05:05:18;10.40;99.90
10419;DHT22;5256;48.728;9.140;2023-05-24T05:07:44;10.40;99.90
10419;DHT22;5256;48.728;9.140;2023-05-24T05:10:10;10.40;99.90
10419;DHT22;5256;48.728;9.140;2023-05-24T05:12:35;10.50;99.90
10419;DHT22;5256;48.728;9.140;2023-05-24T05:15:01;10.50;99.90
10419;DHT22;5256;48.728;9.140;2023-05-24T05:17:27;10.50;99.90
10419;DHT22;5256;48.728;9.140;2023-05-24T05:19:52;10.40;99.90
10419;DHT22;5256;48.728;9.140;2023-05-24T05:22:18;10.50;99.90
10419;DHT22;5256;48.728;9.140;2023-05-24T05:24:44;10.50;99.90
10419;DHT22;5256;48.728;9.140;2023-05-24T05:27:09;10.40;99.90
10419;DHT22;5256;48.728;9.140;2023-05-24T05:29:35;10.50;99.90
10419;DHT22;5256;48.728;9.140;2023-05-24T05:32:00;10.50;99.90
10419;DHT22;5256;48.728;9.140;2023-05-24T05:34:26;10.60;99.90
10419;DHT22;5256;48.728;9.140;2023-05-24T05:36:51;10.60;99.90
10419;DHT22;5256;48.728;9.140;2023-05-24T05:39:17;10.70;99.90
10419;DHT22;5256;48.728;9.140;2023-05-24T05:41:42;10.70;99.90
10419;DHT22;5256;48.728;9.140;2023-05-24T05:44:10;10.70;99.90
10419;DHT22;5256;48.728;9.140;2023-05-24T05:46:36;10.60;99.90
10419;DHT22;5256;48.728;9.140;2023-05-24T05:49:02;10.80;99.90
10419;DHT22;5256;48.728;9.140;2023-05-24T05:51:27;10.90;99.90
10419;DHT22;5256;48.728;9.140;2023-05-24T05:53:53;10.90;99.90
10419;DHT22;5256;48.728;9.140;2023-05-24T05:56:19;11.00;99.90
10419;DHT22;5256;48.728;9.140;2023-05-24T05:58:44;11.10;99.90
10419;DHT22;5256;48.728;9.140;2023-05-24T06:01:10;11.00;99.90
10419;DHT22;5256;48.728;9.140;2023-05-24T06:03:35;11.00;99.90
10419;DHT22;5256;48.728;9.140;2023-05-24T06:06:01;11.00;99.90
10419;DHT22;5256;48.728;9.140;2023-05-24T06:08:26;11.00;99.90
10419;DHT22;5256;48.728;9.140;2023-05-24T06:10:54;11.00;99.90
10419;DHT22;5256;48.728;9.140;2023-05-24T06:13:20;11.10;99.90
10419;DHT22;5256;48.728;9.140;2023-05-24T06:15:45;11.30;99.90
10419;DHT22;5256;48.728;9.140;2023-05-24T06:18:11;11.40;99.90
10419;DHT22;5256;48.728;9.140;2023-05-24T06:20:37;11.50;99.90
10419;DHT22;5256;48.728;9.140;2023-05-24T06:23:03;11.70;99.90
10419;DHT22;5256;48.728;9.140;2023-05-24T06:25:29;11.80;99.90
10419;DHT22;5256;48.728;9.140;2023-05-24T06:27:57;12.00;99.90
10419;DHT22;5256;48.728;9.140;2023-05-24T06:30:22;12.00;99.90
10419;DHT22;5256;48.728;9.140;2023-05-24T06:32:48;12.00;99.90
10419;DHT22;5256;48.728;9.140;2023-05-24T06:35:14;11.90;99.90
10419;DHT22;5256;48.728;9.140;2023-05-24T06:37:42;11.80;99.90
10419;DHT22;5256;48.728;9.140;2023-05-24T06:40:08;11.70;99.90
10419;DHT22;5256;48.728;9.140;2023-05-24T06:42:35;11.80;99.90
10419;DHT22;5256;48.728;9.140;2023-05-24T06:45:01;11.90;99.90
10419;DHT22;5256;48.728;9.140;2023-05-24T06:47:27;11.90;99.90
10419;DHT22;5256;48.728;9.140;2023-05-24T06:49:52;12.10;99.90
10419;DHT22;5256;48.728;9.140;2023-05-24T06:52:18;12.00;99.90
10419;DHT22;5256;48.728;9.140;2023-05-24T06:54:43;12.00;99.90
10419;DHT22;5256;48.728;9.140;2023-05-24T06:57:09;12.20;99.90
10419;DHT22;5256;48.728;9.140;2023-05-24T06:59:35;12.30;99.90
10419;DHT22;5256;48.728;9.140;2023-05-24T07:02:00;12.30;99.90
10419;DHT22;5256;48.728;9.140;2023-05-24T07:04:26;12.20;99.90
10419;DHT22;5256;48.728;9.140;2023-05-24T07:06:52;12.00;99.90
10419;DHT22;5256;48.728;9.140;2023-05-24T07:09:18;11.90;99.90
10419;DHT22;5256;48.728;9.140;2023-05-24T07:11:44;11.90;99.90
10419;DHT22;5256;48.728;9.140;2023-05-24T07:14:10;11.80;99.90
10419;DHT22;5256;48.728;9.140;2023-05-24T07:16:36;11.80;99.90
10419;DHT22;5256;48.728;9.140;2023-05-24T07:19:01;11.80;99.90
10419;DHT22;5256;48.728;9.140;2023-05-24T07:21:27;11.80;99.90
10419;DHT22;5256;48.728;9.140;2023-05-24T07:23:53;11.70;99.90
10419;DHT22;5256;48.728;9.140;2023-05-24T07:26:18;11.70;99.90
10419;DHT22;5256;48.728;9.140;2023-05-24T07:28:44;11.70;99.90
10419;DHT22;5256;48.728;9.140;2023-05-24T07:31:09;11.60;99.90
10419;DHT22;5256;48.728;9.140;2023-05-24T07:33:36;11.80;99.90
10419;DHT22;5256;48.728;9.140;2023-05-24T07:36:03;11.80;99.90
10419;DHT22;5256;48.728;9.140;2023-05-24T07:38:29;11.80;99.90
10419;DHT22;5256;48.728;9.140;2023-05-24T07:40:57;11.90;99.90
10419;DHT22;5256;48.728;9.140;2023-05-24T07:43:23;11.80;99.90
10419;DHT22;5256;48.728;9.140;2023-05-24T07:45:49;11.90;99.90
10419;DHT22;5256;48.728;9.140;2023-05-24T07:48:14;11.90;99.90
10419;DHT22;5256;48.728;9.140;2023-05-24T07:50:40;11.70;99.90
10419;DHT22;5256;48.728;9.140;2023-05-24T07:53:06;11.40;99.90
10419;DHT22;5256;48.728;9.140;2023-05-24T07:55:31;11.40;99.90
10419;DHT22;5256;48.728;9.140;2023-05-24T07:57:57;11.50;99.90
10419;DHT22;5256;48.728;9.140;2023-05-24T08:00:22;11.70;99.90
10419;DHT22;5256;48.728;9.140;2023-05-24T08:02:48;11.80;99.90
10419;DHT22;5256;48.728;9.140;2023-05-24T08:05:14;12.00;99.90
10419;DHT22;5256;48.728;9.140;2023-05-24T08:07:39;12.10;99.90
10419;DHT22;5256;48.728;9.140;2023-05-24T08:10:07;12.20;99.90
10419;DHT22;5256;48.728;9.140;2023-05-24T08:12:33;12.20;99.90
10419;DHT22;5256;48.728;9.140;2023-05-24T08:14:59;12.30;99.90
10419;DHT22;5256;48.728;9.140;2023-05-24T08:17:25;12.10;99.90
10419;DHT22;5256;48.728;9.140;2023-05-24T08:19:51;12.30;99.90
10419;DHT22;5256;48.728;9.140;2023-05-24T08:22:16;12.40;99.90
10419;DHT22;5256;48.728;9.140;2023-05-24T08:24:42;12.40;99.90
10419;DHT22;5256;48.728;9.140;2023-05-24T08:27:07;12.40;99.90
10419;DHT22;5256;48.728;9.140;2023-05-24T08:29:34;12.30;99.90
10419;DHT22;5256;48.728;9.140;2023-05-24T08:32:00;12.20;99.90
10419;DHT22;5256;48.728;9.140;2023-05-24T08:34:25;12.10;99.90
10419;DHT22;5256;48.728;9.140;2023-05-24T08:36:51;12.00;99.90
10419;DHT22;5256;48.728;9.140;2023-05-24T08:39:18;12.10;99.90
10419;DHT22;5256;48.728;9.140;2023-05-24T08:41:45;12.00;99.90
10419;DHT22;5256;48.728;9.140;2023-05-24T08:44:12;11.90;99.90
10419;DHT22;5256;48.728;9.140;2023-05-24T08:46:38;11.80;99.90
10419;DHT22;5256;48.728;9.140;2023-05-24T08:49:04;11.80;99.90
10419;DHT22;5256;48.728;9.140;2023-05-24T08:51:30;11.70;99.90
10419;DHT22;5256;48.728;9.140;2023-05-24T08:53:57;11.70;99.90
10419;DHT22;5256;48.728;9.140;2023-05-24T08:56:24;11.90;99.90
10419;DHT22;5256;48.728;9.140;2023-05-24T08:58:51;12.10;99.90
10419;DHT22;5256;48.728;9.140;2023-05-24T09:01:18;12.30;99.90
10419;DHT22;5256;48.728;9.140;2023-05-24T09:03:46;12.60;99.90
10419;DHT22;5256;48.728;9.140;2023-05-24T09:06:12;12.80;99.90
10419;DHT22;5256;48.728;9.140;2023-05-24T09:08:41;12.90;99.90
10419;DHT22;5256;48.728;9.140;2023-05-24T09:11:07;13.00;99.90
10419;DHT22;5256;48.728;9.140;2023-05-24T09:13:34;13.00;99.90
10419;DHT22;5256;48.728;9.140;2023-05-24T09:16:00;13.00;99.90
10419;DHT22;5256;48.728;9.140;2023-05-24T09:18:26;12.80;99.90
10419;DHT22;5256;48.728;9.140;2023-05-24T09:20:51;12.90;99.90
10419;DHT22;5256;48.728;9.140;2023-05-24T09:23:17;12.80;99.90
10419;DHT22;5256;48.728;9.140;2023-05-24T09:25:43;12.90;99.90
10419;DHT22;5256;48.728;9.140;2023-05-24T09:28:12;13.10;99.90
10419;DHT22;5256;48.728;9.140;2023-05-24T09:30:41;13.00;99.90
10419;DHT22;5256;48.728;9.140;2023-05-24T09:33:07;12.90;99.90
10419;DHT22;5256;48.728;9.140;2023-05-24T09:35:33;12.70;99.90
10419;DHT22;5256;48.728;9.140;2023-05-24T09:38:01;12.80;99.90
10419;DHT22;5256;48.728;9.140;2023-05-24T09:40:28;12.60;99.90
10419;DHT22;5256;48.728;9.140;2023-05-24T09:43:07;12.40;99.90
10419;DHT22;5256;48.728;9.140;2023-05-24T09:45:44;12.50;99.90
10419;DHT22;5256;48.728;9.140;2023-05-24T09:48:15;12.60;99.90
10419;DHT22;5256;48.728;9.140;2023-05-24T09:51:01;12.60;99.90
10419;DHT22;5256;48.728;9.140;2023-05-24T09:53:27;12.70;99.90
10419;DHT22;5256;48.728;9.140;2023-05-24T09:55:53;12.70;99.90
10419;DHT22;5256;48.728;9.140;2023-05-24T09:58:19;12.60;99.90
10419;DHT22;5256;48.728;9.140;2023-05-24T10:00:45;12.30;99.90
10419;DHT22;5256;48.728;9.140;2023-05-24T10:03:11;12.30;99.90
10419;DHT22;5256;48.728;9.140;2023-05-24T10:05:43;12.30;99.90
10419;DHT22;5256;48.728;9.140;2023-05-24T10:08:09;12.50;99.90
10419;DHT22;5256;48.728;9.140;2023-05-24T10:10:35;12.60;99.90
10419;DHT22;5256;48.728;9.140;2023-05-24T10:13:01;12.60;99.90
10419;DHT22;5256;48.728;9.140;2023-05-24T10:15:28;12.70;99.90
10419;DHT22;5256;48.728;9.140;2023-05-24T10:17:55;12.80;99.90
10419;DHT22;5256;48.728;9.140;2023-05-24T10:20:21;12.70;99.90
10419;DHT22;5256;48.728;9.140;2023-05-24T10:22:52;12.80;99.90
10419;DHT22;5256;48.728;9.140;2023-05-24T10:25:22;12.60;99.90
10419;DHT22;5256;48.728;9.140;2023-05-24T10:27:54;12.50;99.90
10419;DHT22;5256;48.728;9.140;2023-05-24T10:30:31;12.60;99.90
10419;DHT22;5256;48.728;9.140;2023-05-24T10:32:59;12.50;99.90
10419;DHT22;5256;48.728;9.140;2023-05-24T10:35:25;12.50;99.90
10419;DHT22;5256;48.728;9.140;2023-05-24T10:37:52;12.50;99.90
10419;DHT22;5256;48.728;9.140;2023-05-24T10:40:20;12.60;99.90
10419;DHT22;5256;48.728;9.140;2023-05-24T10:42:47;12.50;99.90
10419;DHT22;5256;48.728;9.140;2023-05-24T10:45:28;12.40;99.90
10419;DHT22;5256;48.728;9.140;2023-05-24T10:47:56;12.40;99.90
10419;DHT22;5256;48.728;9.140;2023-05-24T10:50:22;12.40;99.90
10419;DHT22;5256;48.728;9.140;2023-05-24T10:52:47;12.50;99.90
10419;DHT22;5256;48.728;9.140;2023-05-24T10:55:14;12.40;99.90
10419;DHT22;5256;48.728;9.140;2023-05-24T10:57:48;12.50;99.90
10419;DHT22;5256;48.728;9.140;2023-05-24T11:03:17;12.70;99.90
10419;DHT22;5256;48.728;9.140;2023-05-24T11:05:48;12.40;99.90
10419;DHT22;5256;48.728;9.140;2023-05-24T11:08:22;12.60;99.90
10419;DHT22;5256;48.728;9.140;2023-05-24T11:10:49;12.80;99.90
10419;DHT22;5256;48.728;9.140;2023-05-24T11:13:14;12.80;99.90
10419;DHT22;5256;48.728;9.140;2023-05-24T11:15:49;12.90;99.90
10419;DHT22;5256;48.728;9.140;2023-05-24T11:18:15;12.70;99.90
10419;DHT22;5256;48.728;9.140;2023-05-24T11:20:44;12.60;99.90
10419;DHT22;5256;48.728;9.140;2023-05-24T11:23:11;13.00;99.90
10419;DHT22;5256;48.728;9.140;2023-05-24T11:25:38;13.30;99.90
10419;DHT22;5256;48.728;9.140;2023-05-24T11:28:08;13.60;99.90
10419;DHT22;5256;48.728;9.140;2023-05-24T11:30:42;13.80;99.90
10419;DHT22;5256;48.728;9.140;2023-05-24T11:33:21;14.20;99.90
10419;DHT22;5256;48.728;9.140;2023-05-24T11:35:51;14.40;99.90
10419;DHT22;5256;48.728;9.140;2023-05-24T11:38:17;14.10;99.90
10419;DHT22;5256;48.728;9.140;2023-05-24T11:40:44;14.00;99.90
10419;DHT22;5256;48.728;9.140;2023-05-24T11:43:20;14.10;99.90
10419;DHT22;5256;48.728;9.140;2023-05-24T11:45:50;13.90;99.90
10419;DHT22;5256;48.728;9.140;2023-05-24T11:48:18;14.10;99.90
10419;DHT22;5256;48.728;9.140;2023-05-24T11:50:45;14.20;99.90
10419;DHT22;5256;48.728;9.140;2023-05-24T11:53:12;14.20;99.90
10419;DHT22;5256;48.728;9.140;2023-05-24T11:55:38;13.90;99.90
10419;DHT22;5256;48.728;9.140;2023-05-24T11:58:10;13.70;99.90
10419;DHT22;5256;48.728;9.140;2023-05-24T12:00:37;13.60;99.90
10419;DHT22;5256;48.728;9.140;2023-05-24T12:03:03;13.50;99.90
10419;DHT22;5256;48.728;9.140;2023-05-24T12:05:32;13.60;99.90
10419;DHT22;5256;48.728;9.140;2023-05-24T12:10:29;14.20;99.90
10419;DHT22;5256;48.728;9.140;2023-05-24T12:12:56;14.80;99.90
10419;DHT22;5256;48.728;9.140;2023-05-24T12:15:21;14.70;99.90
10419;DHT22;5256;48.728;9.140;2023-05-24T12:17:47;14.50;99.90
10419;DHT22;5256;48.728;9.140;2023-05-24T12:20:16;14.40;99.90
10419;DHT22;5256;48.728;9.140;2023-05-24T12:22:51;14.50;99.90
10419;DHT22;5256;48.728;9.140;2023-05-24T12:25:21;14.70;99.90
10419;DHT22;5256;48.728;9.140;2023-05-24T12:27:51;14.80;99.90
10419;DHT22;5256;48.728;9.140;2023-05-24T12:30:24;14.60;99.90
10419;DHT22;5256;48.728;9.140;2023-05-24T12:32:50;14.60;99.90
10419;DHT22;5256;48.728;9.140;2023-05-24T12:35:19;14.70;99.90
10419;DHT22;5256;48.728;9.140;2023-05-24T12:37:45;14.70;99.90
10419;DHT22;5256;48.728;9.140;2023-05-24T12:40:18;14.30;99.90
10419;DHT22;5256;48.728;9.140;2023-05-24T12:42:55;14.40;99.90
10419;DHT22;5256;48.728;9.140;2023-05-24T12:45:24;14.50;99.90
10419;DHT22;5256;48.728;9.140;2023-05-24T12:47:51;14.50;99.90
10419;DHT22;5256;48.728;9.140;2023-05-24T12:50:18;14.40;99.90
10419;DHT22;5256;48.728;9.140;2023-05-24T12:52:43;14.30;99.90
10419;DHT22;5256;48.728;9.140;2023-05-24T12:55:14;14.50;99.90
10419;DHT22;5256;48.728;9.140;2023-05-24T12:57:41;14.40;99.90
10419;DHT22;5256;48.728;9.140;2023-05-24T13:00:08;14.40;99.90
10419;DHT22;5256;48.728;9.140;2023-05-24T13:02:38;14.60;99.90
10419;DHT22;5256;48.728;9.140;2023-05-24T13:05:05;14.60;99.90
10419;DHT22;5256;48.728;9.140;2023-05-24T13:07:31;14.80;99.90
10419;DHT22;5256;48.728;9.140;2023-05-24T13:09:57;15.20;99.90
10419;DHT22;5256;48.728;9.140;2023-05-24T13:12:24;15.40;99.90
10419;DHT22;5256;48.728;9.140;2023-05-24T13:14:50;15.70;99.90
10419;DHT22;5256;48.728;9.140;2023-05-24T13:17:16;15.50;99.90
10419;DHT22;5256;48.728;9.140;2023-05-24T13:19:42;15.60;99.70
10419;DHT22;5256;48.728;9.140;2023-05-24T13:22:08;15.40;99.80
10419;DHT22;5256;48.728;9.140;2023-05-24T13:24:33;15.70;99.90
10419;DHT22;5256;48.728;9.140;2023-05-24T13:26:59;15.80;99.90
10419;DHT22;5256;48.728;9.140;2023-05-24T13:29:25;15.70;99.90
10419;DHT22;5256;48.728;9.140;2023-05-24T13:31:51;15.90;99.80
10419;DHT22;5256;48.728;9.140;2023-05-24T13:34:17;15.90;99.80
10419;DHT22;5256;48.728;9.140;2023-05-24T13:36:44;16.10;99.40
10419;DHT22;5256;48.728;9.140;2023-05-24T13:39:10;16.10;98.10
10419;DHT22;5256;48.728;9.140;2023-05-24T13:41:37;15.90;99.00
10419;DHT22;5256;48.728;9.140;2023-05-24T13:44:03;16.00;99.10
10419;DHT22;5256;48.728;9.140;2023-05-24T13:46:28;16.00;99.50
10419;DHT22;5256;48.728;9.140;2023-05-24T13:48:55;16.10;99.60
10419;DHT22;5256;48.728;9.140;2023-05-24T13:51:22;16.40;99.90
10419;DHT22;5256;48.728;9.140;2023-05-24T13:53:47;16.60;99.60
10419;DHT22;5256;48.728;9.140;2023-05-24T13:56:14;16.30;99.50
10419;DHT22;5256;48.728;9.140;2023-05-24T13:58:40;16.20;99.40
10419;DHT22;5256;48.728;9.140;2023-05-24T14:01:06;15.70;99.50
10419;DHT22;5256;48.728;9.140;2023-05-24T14:03:32;15.40;99.40
10419;DHT22;5256;48.728;9.140;2023-05-24T14:05:58;15.50;99.70
10419;DHT22;5256;48.728;9.140;2023-05-24T14:08:24;16.40;98.90
10419;DHT22;5256;48.728;9.140;2023-05-24T14:10:50;17.60;97.90
10419;DHT22;5256;48.728;9.140;2023-05-24T14:13:16;18.60;97.50
10419;DHT22;5256;48.728;9.140;2023-05-24T14:15:41;19.90;96.10
10419;DHT22;5256;48.728;9.140;2023-05-24T14:18:08;20.40;95.70
10419;DHT22;5256;48.728;9.140;2023-05-24T14:20:34;20.90;94.50
10419;DHT22;5256;48.728;9.140;2023-05-24T14:23:05;21.40;94.80
10419;DHT22;5256;48.728;9.140;2023-05-24T14:25:31;21.60;94.00
10419;DHT22;5256;48.728;9.140;2023-05-24T14:27:57;21.80;92.00
10419;DHT22;5256;48.728;9.140;2023-05-24T14:30:23;20.60;92.50
10419;DHT22;5256;48.728;9.140;2023-05-24T14:32:48;19.70;93.00
10419;DHT22;5256;48.728;9.140;2023-05-24T14:35:14;18.60;94.20
10419;DHT22;5256;48.728;9.140;2023-05-24T14:37:40;17.20;94.80
10419;DHT22;5256;48.728;9.140;2023-05-24T14:40:06;16.80;95.20
10419;DHT22;5256;48.728;9.140;2023-05-24T14:42:31;16.60;96.10
10419;DHT22;5256;48.728;9.140;2023-05-24T14:44:57;16.40;95.70
10419;DHT22;5256;48.728;9.140;2023-05-24T14:47:23;16.60;96.00
10419;DHT22;5256;48.728;9.140;2023-05-24T14:49:48;17.30;95.40
10419;DHT22;5256;48.728;9.140;2023-05-24T14:52:14;17.60;93.90
10419;DHT22;5256;48.728;9.140;2023-05-24T14:54:40;18.10;93.40
10419;DHT22;5256;48.728;9.140;2023-05-24T14:57:05;18.70;92.60
10419;DHT22;5256;48.728;9.140;2023-05-24T14:59:34;18.80;93.00
10419;DHT22;5256;48.728;9.140;2023-05-24T15:02:00;18.70;93.70
10419;DHT22;5256;48.728;9.140;2023-05-24T15:04:25;18.70;93.50
10419;DHT22;5256;48.728;9.140;2023-05-24T15:06:52;18.90;94.10
10419;DHT22;5256;48.728;9.140;2023-05-24T15:09:18;19.70;92.80
10419;DHT22;5256;48.728;9.140;2023-05-24T15:11:43;20.20;92.10
10419;DHT22;5256;48.728;9.140;2023-05-24T15:14:09;20.80;91.80
10419;DHT22;5256;48.728;9.140;2023-05-24T15:16:34;21.30;91.50
10419;DHT22;5256;48.728;9.140;2023-05-24T15:19:00;20.80;90.10
10419;DHT22;5256;48.728;9.140;2023-05-24T15:21:26;19.70;90.60
10419;DHT22;5256;48.728;9.140;2023-05-24T15:23:52;19.90;91.80
10419;DHT22;5256;48.728;9.140;2023-05-24T15:26:17;19.70;91.50
10419;DHT22;5256;48.728;9.140;2023-05-24T15:28:43;20.20;91.60
10419;DHT22;5256;48.728;9.140;2023-05-24T15:31:09;20.80;91.60
10419;DHT22;5256;48.728;9.140;2023-05-24T15:33:35;21.70;90.60
10419;DHT22;5256;48.728;9.140;2023-05-24T15:36:02;22.40;90.40
10419;DHT22;5256;48.728;9.140;2023-05-24T15:38:27;21.80;90.30
10419;DHT22;5256;48.728;9.140;2023-05-24T15:40:53;19.70;90.90
10419;DHT22;5256;48.728;9.140;2023-05-24T15:43:19;18.70;91.30
10419;DHT22;5256;48.728;9.140;2023-05-24T15:45:45;18.00;91.60
10419;DHT22;5256;48.728;9.140;2023-05-24T15:48:11;17.40;92.10
10419;DHT22;5256;48.728;9.140;2023-05-24T15:50:37;16.90;92.80
10419;DHT22;5256;48.728;9.140;2023-05-24T15:53:03;17.10;92.60
10419;DHT22;5256;48.728;9.140;2023-05-24T15:55:30;17.90;92.40
10419;DHT22;5256;48.728;9.140;2023-05-24T15:57:58;18.20;92.60
10419;DHT22;5256;48.728;9.140;2023-05-24T16:00:24;18.90;91.70
10419;DHT22;5256;48.728;9.140;2023-05-24T16:02:50;18.70;91.50